sensor_id;sensor_type;location;lat;lon;timestamp;temperature;humidity
2577;DHT22;1298;51.252;6.802;2023-06-10T00:00:04;21.70;99.90
2577;DHT22;1298;51.252;6.802;2023-06-10T00:02:51;21.60;99.90
2577;DHT22;1298;51.252;6.802;2023-06-10T00:05:36;21.60;99.90
2577;DHT22;1298;51.252;6.802;2023-06-10T00:08:22;21.40;99.90
2577;DHT22;1298;51.252;6.802;2023-06-10T00:11:10;21.40;99.90
2577;DHT22;1298;51.252;6.802;2023-06-10T00:13:55;21.30;99.90
2577;DHT22;1298;51.252;6.802;2023-06-10T00:16:41;21.30;99.90
2577;DHT22;1298;51.252;6.802;2023-06-10T00:19:29;21.30;99.90
2577;DHT22;1298;51.252;6.802;2023-06-10T00:22:15;21.20;99.90
2577;DHT22;1298;51.252;6.802;2023-06-10T00:25:01;21.20;99.90
2577;DHT22;1298;51.252;6.802;2023-06-10T00:27:49;21.10;99.90
2577;DHT22;1298;51.252;6.802;2023-06-10T00:30:34;21.00;99.90
2577;DHT22;1298;51.252;6.802;2023-06-10T00:33:19;20.90;99.90
2577;DHT22;1298;51.252;6.802;2023-06-10T00:36:04;20.90;99.90
2577;DHT22;1298;51.252;6.802;2023-06-10T00:38:50;20.90;99.90
2577;DHT22;1298;51.252;6.802;2023-06-10T00:41:35;20.90;99.90
2577;DHT22;1298;51.252;6.802;2023-06-10T00:44:24;20.70;99.90
2577;DHT22;1298;51.252;6.802;2023-06-10T00:47:09;20.70;99.90
2577;DHT22;1298;51.252;6.802;2023-06-10T00:49:54;20.70;99.90
2577;DHT22;1298;51.252;6.802;2023-06-10T00:52:41;20.70;99.90
2577;DHT22;1298;51.252;6.802;2023-06-10T00:55:28;20.70;99.90
2577;DHT22;1298;51.252;6.802;2023-06-10T00:58:13;20.60;99.90
2577;DHT22;1298;51.252;6.802;2023-06-10T01:01:01;20.50;99.90
2577;DHT22;1298;51.252;6.802;2023-06-10T01:03:48;20.50;99.90
2577;DHT22;1298;51.252;6.802;2023-06-10T01:06:35;20.40;99.90
2577;DHT22;1298;51.252;6.802;2023-06-10T01:09:22;20.30;99.90
2577;DHT22;1298;51.252;6.802;2023-06-10T01:12:10;20.30;99.90
2577;DHT22;1298;51.252;6.802;2023-06-10T01:14:56;20.20;99.90
2577;DHT22;1298;51.252;6.802;2023-06-10T01:17:54;20.10;99.90
2577;DHT22;1298;51.252;6.802;2023-06-10T01:20:41;20.00;99.90
2577;DHT22;1298;51.252;6.802;2023-06-10T01:23:28;19.90;99.90
2577;DHT22;1298;51.252;6.802;2023-06-10T01:26:14;19.80;99.90
2577;DHT22;1298;51.252;6.802;2023-06-10T01:29:02;19.80;99.90
2577;DHT22;1298;51.252;6.802;2023-06-10T01:31:50;19.80;99.90
2577;DHT22;1298;51.252;6.802;2023-06-10T01:34:37;19.80;99.90
2577;DHT22;1298;51.252;6.802;2023-06-10T01:37:24;19.80;99.90
2577;DHT22;1298;51.252;6.802;2023-06-10T01:40:13;19.90;99.90
2577;DHT22;1298;51.252;6.802;2023-06-10T01:42:58;19.80;99.90
2577;DHT22;1298;51.252;6.802;2023-06-10T01:45:44;19.80;99.90
2577;DHT22;1298;51.252;6.802;2023-06-10T01:48:29;19.70;99.90
2577;DHT22;1298;51.252;6.802;2023-06-10T01:51:14;19.60;99.90
2577;DHT22;1298;51.252;6.802;2023-06-10T01:53:59;19.60;99.90
2577;DHT22;1298;51.252;6.802;2023-06-10T01:56:46;19.60;99.90
2577;DHT22;1298;51.252;6.802;2023-06-10T01:59:31;19.60;99.90
2577;DHT22;1298;51.252;6.802;2023-06-10T02:02:16;19.50;99.90
2577;DHT22;1298;51.252;6.802;2023-06-10T02:05:01;19.40;99.90
2577;DHT22;1298;51.252;6.802;2023-06-10T02:07:47;19.50;99.90
2577;DHT22;1298;51.252;6.802;2023-06-10T02:10:32;19.40;99.90
2577;DHT22;1298;51.252;6.802;2023-06-10T02:13:19;19.30;99.90
2577;DHT22;1298;51.252;6.802;2023-06-10T02:16:04;19.30;99.90
2577;DHT22;1298;51.252;6.802;2023-06-10T02:18:50;19.30;99.90
2577;DHT22;1298;51.252;6.802;2023-06-10T02:21:35;19.30;99.90
2577;DHT22;1298;51.252;6.802;2023-06-10T02:24:20;19.20;99.90
2577;DHT22;1298;51.252;6.802;2023-06-10T02:27:05;19.20;99.90
2577;DHT22;1298;51.252;6.802;2023-06-10T02:29:53;19.10;99.90
2577;DHT22;1298;51.252;6.802;2023-06-10T02:32:38;19.10;99.90
2577;DHT22;1298;51.252;6.802;2023-06-10T02:35:25;19.10;99.90
2577;DHT22;1298;51.252;6.802;2023-06-10T02:38:10;19.00;99.90
2577;DHT22;1298;51.252;6.802;2023-06-10T02:40:55;19.00;99.90
2577;DHT22;1298;51.252;6.802;2023-06-10T02:43:40;18.90;99.90
2577;DHT22;1298;51.252;6.802;2023-06-10T02:46:27;18.80;99.90
2577;DHT22;1298;51.252;6.802;2023-06-10T02:49:13;18.70;99.90
2577;DHT22;1298;51.252;6.802;2023-06-10T02:51:58;18.70;99.90
2577;DHT22;1298;51.252;6.802;2023-06-10T02:54:43;18.70;99.90
2577;DHT22;1298;51.252;6.802;2023-06-10T02:57:29;18.60;99.90
2577;DHT22;1298;51.252;6.802;2023-06-10T03:00:15;18.60;99.90
2577;DHT22;1298;51.252;6.802;2023-06-10T03:03:02;18.60;99.90
2577;DHT22;1298;51.252;6.802;2023-06-10T03:05:49;18.60;99.90
2577;DHT22;1298;51.252;6.802;2023-06-10T03:08:34;18.60;99.90
2577;DHT22;1298;51.252;6.802;2023-06-10T03:11:19;18.50;99.90
2577;DHT22;1298;51.252;6.802;2023-06-10T03:14:04;18.40;99.90
2577;DHT22;1298;51.252;6.802;2023-06-10T03:16:50;18.40;99.90
2577;DHT22;1298;51.252;6.802;2023-06-10T03:19:36;18.30;99.90
2577;DHT22;1298;51.252;6.802;2023-06-10T03:22:22;18.30;99.90
2577;DHT22;1298;51.252;6.802;2023-06-10T03:25:07;18.30;99.90
2577;DHT22;1298;51.252;6.802;2023-06-10T03:27:58;18.30;99.90
2577;DHT22;1298;51.252;6.802;2023-06-10T03:30:43;18.30;99.90
2577;DHT22;1298;51.252;6.802;2023-06-10T03:33:28;18.30;99.90
2577;DHT22;1298;51.252;6.802;2023-06-10T03:36:15;18.30;99.90
2577;DHT22;1298;51.252;6.802;2023-06-10T03:39:01;18.20;99.90
2577;DHT22;1298;51.252;6.802;2023-06-10T03:41:46;18.20;99.90
2577;DHT22;1298;51.252;6.802;2023-06-10T03:44:31;18.10;99.90
2577;DHT22;1298;51.252;6.802;2023-06-10T03:47:17;18.10;99.90
2577;DHT22;1298;51.252;6.802;2023-06-10T03:50:03;18.10;99.90
2577;DHT22;1298;51.252;6.802;2023-06-10T03:52:49;18.10;99.90
2577;DHT22;1298;51.252;6.802;2023-06-10T03:55:34;18.00;99.90
2577;DHT22;1298;51.252;6.802;2023-06-10T03:58:20;17.90;99.90
2577;DHT22;1298;51.252;6.802;2023-06-10T04:01:05;18.00;99.90
2577;DHT22;1298;51.252;6.802;2023-06-10T04:03:51;18.20;99.90
2577;DHT22;1298;51.252;6.802;2023-06-10T04:06:38;18.20;99.90
2577;DHT22;1298;51.252;6.802;2023-06-10T04:09:25;18.20;99.90
2577;DHT22;1298;51.252;6.802;2023-06-10T04:12:10;18.20;99.90
2577;DHT22;1298;51.252;6.802;2023-06-10T04:14:55;18.20;99.90
2577;DHT22;1298;51.252;6.802;2023-06-10T04:17:41;18.20;99.90
2577;DHT22;1298;51.252;6.802;2023-06-10T04:20:27;18.20;99.90
2577;DHT22;1298;51.252;6.802;2023-06-10T04:23:12;18.30;99.90
2577;DHT22;1298;51.252;6.802;2023-06-10T04:25:59;18.30;99.90
2577;DHT22;1298;51.252;6.802;2023-06-10T04:28:44;18.30;99.90
2577;DHT22;1298;51.252;6.802;2023-06-10T04:31:30;18.40;99.90
2577;DHT22;1298;51.252;6.802;2023-06-10T04:34:16;18.40;99.90
2577;DHT22;1298;51.252;6.802;2023-06-10T04:37:02;18.40;99.90
2577;DHT22;1298;51.252;6.802;2023-06-10T04:39:47;18.50;99.90
2577;DHT22;1298;51.252;6.802;2023-06-10T04:42:35;18.60;99.90
2577;DHT22;1298;51.252;6.802;2023-06-10T04:45:20;18.70;99.90
2577;DHT22;1298;51.252;6.802;2023-06-10T04:48:06;18.80;99.90
2577;DHT22;1298;51.252;6.802;2023-06-10T04:50:51;18.90;99.90
2577;DHT22;1298;51.252;6.802;2023-06-10T04:53:37;19.00;99.90
2577;DHT22;1298;51.252;6.802;2023-06-10T04:56:22;19.20;99.90
2577;DHT22;1298;51.252;6.802;2023-06-10T04:59:09;19.40;99.90
2577;DHT22;1298;51.252;6.802;2023-06-10T05:01:54;19.40;99.90
2577;DHT22;1298;51.252;6.802;2023-06-10T05:04:39;19.50;99.90
2577;DHT22;1298;51.252;6.802;2023-06-10T05:07:24;19.50;99.90
2577;DHT22;1298;51.252;6.802;2023-06-10T05:10:09;19.50;99.90
2577;DHT22;1298;51.252;6.802;2023-06-10T05:12:55;19.50;99.90
2577;DHT22;1298;51.252;6.802;2023-06-10T05:15:42;19.50;99.90
2577;DHT22;1298;51.252;6.802;2023-06-10T05:18:28;19.50;99.90
2577;DHT22;1298;51.252;6.802;2023-06-10T05:21:15;19.60;99.90
2577;DHT22;1298;51.252;6.802;2023-06-10T05:24:00;19.60;99.90
2577;DHT22;1298;51.252;6.802;2023-06-10T05:26:46;19.70;99.90
2577;DHT22;1298;51.252;6.802;2023-06-10T05:29:33;19.80;99.90
2577;DHT22;1298;51.252;6.802;2023-06-10T05:32:20;19.90;99.90
2577;DHT22;1298;51.252;6.802;2023-06-10T05:35:05;19.90;99.90
2577;DHT22;1298;51.252;6.802;2023-06-10T05:37:51;19.90;99.90
2577;DHT22;1298;51.252;6.802;2023-06-10T05:40:36;20.00;99.90
2577;DHT22;1298;51.252;6.802;2023-06-10T05:43:21;20.10;99.90
2577;DHT22;1298;51.252;6.802;2023-06-10T05:46:06;20.10;99.90
2577;DHT22;1298;51.252;6.802;2023-06-10T05:48:53;20.20;99.90
2577;DHT22;1298;51.252;6.802;2023-06-10T05:51:39;20.20;99.90
2577;DHT22;1298;51.252;6.802;2023-06-10T05:54:25;20.30;99.90
2577;DHT22;1298;51.252;6.802;2023-06-10T05:57:10;20.40;99.90
2577;DHT22;1298;51.252;6.802;2023-06-10T05:59:55;20.50;99.90
2577;DHT22;1298;51.252;6.802;2023-06-10T06:02:41;20.50;99.90
2577;DHT22;1298;51.252;6.802;2023-06-10T06:05:27;20.70;99.90
2577;DHT22;1298;51.252;6.802;2023-06-10T06:08:19;20.80;99.90
2577;DHT22;1298;51.252;6.802;2023-06-10T06:11:04;20.90;99.90
2577;DHT22;1298;51.252;6.802;2023-06-10T06:13:49;20.90;99.90
2577;DHT22;1298;51.252;6.802;2023-06-10T06:16:35;21.10;99.90
2577;DHT22;1298;51.252;6.802;2023-06-10T06:19:21;21.20;99.90
2577;DHT22;1298;51.252;6.802;2023-06-10T06:22:09;21.20;99.90
2577;DHT22;1298;51.252;6.802;2023-06-10T06:24:54;21.30;99.90
2577;DHT22;1298;51.252;6.802;2023-06-10T06:27:40;21.40;99.90
2577;DHT22;1298;51.252;6.802;2023-06-10T06:30:25;21.40;99.90
2577;DHT22;1298;51.252;6.802;2023-06-10T06:33:10;21.50;99.90
2577;DHT22;1298;51.252;6.802;2023-06-10T06:35:56;21.60;99.90
2577;DHT22;1298;51.252;6.802;2023-06-10T06:38:43;21.60;99.90
2577;DHT22;1298;51.252;6.802;2023-06-10T06:41:28;21.80;99.90
2577;DHT22;1298;51.252;6.802;2023-06-10T06:44:14;22.00;99.90
2577;DHT22;1298;51.252;6.802;2023-06-10T06:47:00;22.10;99.90
2577;DHT22;1298;51.252;6.802;2023-06-10T06:49:46;22.20;99.90
2577;DHT22;1298;51.252;6.802;2023-06-10T06:52:33;22.30;99.90
2577;DHT22;1298;51.252;6.802;2023-06-10T06:55:21;22.40;99.90
2577;DHT22;1298;51.252;6.802;2023-06-10T06:58:06;22.50;99.90
2577;DHT22;1298;51.252;6.802;2023-06-10T07:00:52;22.50;99.90
2577;DHT22;1298;51.252;6.802;2023-06-10T07:03:38;22.60;99.90
2577;DHT22;1298;51.252;6.802;2023-06-10T07:06:25;22.60;99.90
2577;DHT22;1298;51.252;6.802;2023-06-10T07:09:10;22.70;99.90
2577;DHT22;1298;51.252;6.802;2023-06-10T07:11:58;22.90;99.90
2577;DHT22;1298;51.252;6.802;2023-06-10T07:14:44;23.00;99.90
2577;DHT22;1298;51.252;6.802;2023-06-10T07:17:31;23.10;99.90
2577;DHT22;1298;51.252;6.802;2023-06-10T07:20:18;23.20;99.90
2577;DHT22;1298;51.252;6.802;2023-06-10T07:23:03;23.30;99.90
2577;DHT22;1298;51.252;6.802;2023-06-10T07:25:49;23.30;99.90
2577;DHT22;1298;51.252;6.802;2023-06-10T07:28:35;23.50;99.90
2577;DHT22;1298;51.252;6.802;2023-06-10T07:31:20;23.60;99.90
2577;DHT22;1298;51.252;6.802;2023-06-10T07:34:05;23.60;99.90
2577;DHT22;1298;51.252;6.802;2023-06-10T07:36:51;23.70;99.90
2577;DHT22;1298;51.252;6.802;2023-06-10T07:39:36;23.70;99.90
2577;DHT22;1298;51.252;6.802;2023-06-10T07:42:21;23.70;99.90
2577;DHT22;1298;51.252;6.802;2023-06-10T07:45:08;23.80;99.90
2577;DHT22;1298;51.252;6.802;2023-06-10T07:47:54;24.00;99.90
2577;DHT22;1298;51.252;6.802;2023-06-10T07:50:40;24.20;99.90
2577;DHT22;1298;51.252;6.802;2023-06-10T07:53:25;24.30;99.90
2577;DHT22;1298;51.252;6.802;2023-06-10T07:56:10;24.40;99.90
2577;DHT22;1298;51.252;6.802;2023-06-10T07:58:56;24.40;99.90
2577;DHT22;1298;51.252;6.802;2023-06-10T08:01:43;24.50;99.90
2577;DHT22;1298;51.252;6.802;2023-06-10T08:04:28;24.60;99.90
2577;DHT22;1298;51.252;6.802;2023-06-10T08:07:16;24.80;99.90
2577;DHT22;1298;51.252;6.802;2023-06-10T08:10:02;24.90;99.90
2577;DHT22;1298;51.252;6.802;2023-06-10T08:12:48;25.00;99.90
2577;DHT22;1298;51.252;6.802;2023-06-10T08:15:33;25.00;99.90
2577;DHT22;1298;51.252;6.802;2023-06-10T08:18:20;25.30;99.90
2577;DHT22;1298;51.252;6.802;2023-06-10T08:21:08;25.30;99.90
2577;DHT22;1298;51.252;6.802;2023-06-10T08:23:54;25.30;99.90
2577;DHT22;1298;51.252;6.802;2023-06-10T08:26:39;25.20;99.90
2577;DHT22;1298;51.252;6.802;2023-06-10T08:29:25;25.20;99.90
2577;DHT22;1298;51.252;6.802;2023-06-10T08:32:10;25.30;99.90
2577;DHT22;1298;51.252;6.802;2023-06-10T08:34:57;25.50;99.90
2577;DHT22;1298;51.252;6.802;2023-06-10T08:37:42;25.60;99.90
2577;DHT22;1298;51.252;6.802;2023-06-10T08:40:27;25.70;99.90
2577;DHT22;1298;51.252;6.802;2023-06-10T08:43:15;25.70;99.90
2577;DHT22;1298;51.252;6.802;2023-06-10T08:46:02;25.80;99.90
2577;DHT22;1298;51.252;6.802;2023-06-10T08:48:48;25.80;99.90
2577;DHT22;1298;51.252;6.802;2023-06-10T08:51:37;25.80;99.90
2577;DHT22;1298;51.252;6.802;2023-06-10T08:54:25;25.80;99.90
2577;DHT22;1298;51.252;6.802;2023-06-10T08:57:10;25.90;99.90
2577;DHT22;1298;51.252;6.802;2023-06-10T08:59:57;26.10;99.90
2577;DHT22;1298;51.252;6.802;2023-06-10T09:02:42;26.20;99.90
2577;DHT22;1298;51.252;6.802;2023-06-10T09:05:28;26.40;99.90
2577;DHT22;1298;51.252;6.802;2023-06-10T09:08:17;26.50;99.90
2577;DHT22;1298;51.252;6.802;2023-06-10T09:11:03;26.40;99.90
2577;DHT22;1298;51.252;6.802;2023-06-10T09:13:48;26.50;99.90
2577;DHT22;1298;51.252;6.802;2023-06-10T09:16:34;26.70;99.90
2577;DHT22;1298;51.252;6.802;2023-06-10T09:19:19;26.60;99.90
2577;DHT22;1298;51.252;6.802;2023-06-10T09:22:05;26.60;99.90
2577;DHT22;1298;51.252;6.802;2023-06-10T09:24:52;26.60;99.90
2577;DHT22;1298;51.252;6.802;2023-06-10T09:27:47;26.70;99.90
2577;DHT22;1298;51.252;6.802;2023-06-10T09:30:37;26.60;99.90
2577;DHT22;1298;51.252;6.802;2023-06-10T09:33:23;26.80;99.90
2577;DHT22;1298;51.252;6.802;2023-06-10T09:36:11;26.90;99.90
2577;DHT22;1298;51.252;6.802;2023-06-10T09:38:58;27.10;99.90
2577;DHT22;1298;51.252;6.802;2023-06-10T09:41:46;27.10;99.90
2577;DHT22;1298;51.252;6.802;2023-06-10T09:44:32;27.10;99.90
2577;DHT22;1298;51.252;6.802;2023-06-10T09:47:19;27.10;99.90
2577;DHT22;1298;51.252;6.802;2023-06-10T09:50:05;27.10;99.90
2577;DHT22;1298;51.252;6.802;2023-06-10T09:52:51;27.10;99.90
2577;DHT22;1298;51.252;6.802;2023-06-10T09:55:37;27.20;99.90
2577;DHT22;1298;51.252;6.802;2023-06-10T09:58:34;27.30;99.90
2577;DHT22;1298;51.252;6.802;2023-06-10T10:01:21;27.40;99.90
2577;DHT22;1298;51.252;6.802;2023-06-10T10:04:08;27.50;99.90
2577;DHT22;1298;51.252;6.802;2023-06-10T10:07:08;27.70;99.90
2577;DHT22;1298;51.252;6.802;2023-06-10T10:09:55;27.70;99.90
2577;DHT22;1298;51.252;6.802;2023-06-10T10:12:43;27.90;99.90
2577;DHT22;1298;51.252;6.802;2023-06-10T10:15:33;27.90;99.90
2577;DHT22;1298;51.252;6.802;2023-06-10T10:18:21;27.90;99.90
2577;DHT22;1298;51.252;6.802;2023-06-10T10:21:13;28.20;99.90
2577;DHT22;1298;51.252;6.802;2023-06-10T10:24:00;28.30;99.90
2577;DHT22;1298;51.252;6.802;2023-06-10T10:26:52;28.50;99.90
2577;DHT22;1298;51.252;6.802;2023-06-10T10:29:41;28.60;99.90
2577;DHT22;1298;51.252;6.802;2023-06-10T10:32:32;28.50;99.90
2577;DHT22;1298;51.252;6.802;2023-06-10T10:35:20;28.70;99.90
2577;DHT22;1298;51.252;6.802;2023-06-10T10:38:07;28.80;99.90
2577;DHT22;1298;51.252;6.802;2023-06-10T10:40:55;28.80;99.90
2577;DHT22;1298;51.252;6.802;2023-06-10T10:43:43;28.80;99.90
2577;DHT22;1298;51.252;6.802;2023-06-10T10:46:29;28.80;99.90
2577;DHT22;1298;51.252;6.802;2023-06-10T10:49:17;28.90;99.90
2577;DHT22;1298;51.252;6.802;2023-06-10T10:52:10;29.10;99.90
2577;DHT22;1298;51.252;6.802;2023-06-10T10:54:57;29.00;99.90
2577;DHT22;1298;51.252;6.802;2023-06-10T10:57:43;28.90;99.90
2577;DHT22;1298;51.252;6.802;2023-06-10T11:00:29;28.80;99.90
2577;DHT22;1298;51.252;6.802;2023-06-10T11:03:15;28.60;99.90
2577;DHT22;1298;51.252;6.802;2023-06-10T11:06:05;28.40;99.90
2577;DHT22;1298;51.252;6.802;2023-06-10T11:08:56;28.40;99.90
2577;DHT22;1298;51.252;6.802;2023-06-10T11:11:48;28.40;99.90
2577;DHT22;1298;51.252;6.802;2023-06-10T11:14:34;28.70;99.90
2577;DHT22;1298;51.252;6.802;2023-06-10T11:17:21;29.00;99.90
2577;DHT22;1298;51.252;6.802;2023-06-10T11:20:08;29.20;99.90
2577;DHT22;1298;51.252;6.802;2023-06-10T11:22:59;29.40;99.90
2577;DHT22;1298;51.252;6.802;2023-06-10T11:25:45;29.50;99.90
2577;DHT22;1298;51.252;6.802;2023-06-10T11:28:31;29.60;99.90
2577;DHT22;1298;51.252;6.802;2023-06-10T11:31:18;29.60;99.90
2577;DHT22;1298;51.252;6.802;2023-06-10T11:34:04;29.70;99.90
2577;DHT22;1298;51.252;6.802;2023-06-10T11:36:50;29.90;99.90
2577;DHT22;1298;51.252;6.802;2023-06-10T11:39:40;30.10;99.90
2577;DHT22;1298;51.252;6.802;2023-06-10T11:42:27;30.30;99.90
2577;DHT22;1298;51.252;6.802;2023-06-10T11:45:14;30.60;99.90
2577;DHT22;1298;51.252;6.802;2023-06-10T11:48:02;30.60;99.90
2577;DHT22;1298;51.252;6.802;2023-06-10T11:50:48;30.60;99.90
2577;DHT22;1298;51.252;6.802;2023-06-10T11:53:34;30.50;99.90
2577;DHT22;1298;51.252;6.802;2023-06-10T11:56:22;30.80;99.90
2577;DHT22;1298;51.252;6.802;2023-06-10T11:59:11;30.60;99.90
2577;DHT22;1298;51.252;6.802;2023-06-10T12:02:04;30.90;99.90
2577;DHT22;1298;51.252;6.802;2023-06-10T12:04:49;30.80;99.90
2577;DHT22;1298;51.252;6.802;2023-06-10T12:07:38;30.80;99.90
2577;DHT22;1298;51.252;6.802;2023-06-10T12:10:23;30.90;99.90
2577;DHT22;1298;51.252;6.802;2023-06-10T12:13:10;30.80;99.90
2577;DHT22;1298;51.252;6.802;2023-06-10T12:16:05;30.50;99.90
2577;DHT22;1298;51.252;6.802;2023-06-10T12:19:00;30.50;99.90
2577;DHT22;1298;51.252;6.802;2023-06-10T12:21:46;30.60;99.90
2577;DHT22;1298;51.252;6.802;2023-06-10T12:24:32;30.70;99.90
2577;DHT22;1298;51.252;6.802;2023-06-10T12:27:18;31.00;99.90
2577;DHT22;1298;51.252;6.802;2023-06-10T12:30:06;31.20;99.90
2577;DHT22;1298;51.252;6.802;2023-06-10T12:32:52;31.30;99.90
2577;DHT22;1298;51.252;6.802;2023-06-10T12:35:41;31.60;99.90
2577;DHT22;1298;51.252;6.802;2023-06-10T12:38:32;31.70;99.90
2577;DHT22;1298;51.252;6.802;2023-06-10T12:41:19;31.80;99.90
2577;DHT22;1298;51.252;6.802;2023-06-10T12:44:04;31.90;99.90
2577;DHT22;1298;51.252;6.802;2023-06-10T12:46:55;31.80;99.90
2577;DHT22;1298;51.252;6.802;2023-06-10T12:49:41;31.90;99.90
2577;DHT22;1298;51.252;6.802;2023-06-10T12:52:26;31.80;99.90
2577;DHT22;1298;51.252;6.802;2023-06-10T12:55:14;31.90;99.90
2577;DHT22;1298;51.252;6.802;2023-06-10T12:58:01;32.10;99.90
2577;DHT22;1298;51.252;6.802;2023-06-10T13:00:47;32.20;99.90
2577;DHT22;1298;51.252;6.802;2023-06-10T13:03:39;33.00;99.90
2577;DHT22;1298;51.252;6.802;2023-06-10T13:06:25;33.80;99.90
2577;DHT22;1298;51.252;6.802;2023-06-10T13:09:17;34.40;99.90
2577;DHT22;1298;51.252;6.802;2023-06-10T13:12:17;34.60;99.90
2577;DHT22;1298;51.252;6.802;2023-06-10T13:15:09;34.30;99.90
2577;DHT22;1298;51.252;6.802;2023-06-10T13:17:57;34.10;99.90
2577;DHT22;1298;51.252;6.802;2023-06-10T13:20:47;33.40;99.90
2577;DHT22;1298;51.252;6.802;2023-06-10T13:23:33;32.70;99.90
2577;DHT22;1298;51.252;6.802;2023-06-10T13:26:19;32.20;99.90
2577;DHT22;1298;51.252;6.802;2023-06-10T13:29:08;31.90;99.90
2577;DHT22;1298;51.252;6.802;2023-06-10T13:31:58;31.70;99.90
2577;DHT22;1298;51.252;6.802;2023-06-10T13:34:43;31.60;99.90
2577;DHT22;1298;51.252;6.802;2023-06-10T13:37:32;31.50;99.90
2577;DHT22;1298;51.252;6.802;2023-06-10T13:40:18;31.50;99.90
2577;DHT22;1298;51.252;6.802;2023-06-10T13:43:04;31.30;99.90
2577;DHT22;1298;51.252;6.802;2023-06-10T13:45:50;31.30;99.90
2577;DHT22;1298;51.252;6.802;2023-06-10T13:48:36;31.50;99.90
2577;DHT22;1298;51.252;6.802;2023-06-10T13:51:30;31.60;99.90
2577;DHT22;1298;51.252;6.802;2023-06-10T13:54:18;31.70;99.90
2577;DHT22;1298;51.252;6.802;2023-06-10T13:57:04;31.70;99.90
2577;DHT22;1298;51.252;6.802;2023-06-10T13:59:50;31.80;99.90
2577;DHT22;1298;51.252;6.802;2023-06-10T14:02:35;31.90;99.90
2577;DHT22;1298;51.252;6.802;2023-06-10T14:05:21;31.90;99.90
2577;DHT22;1298;51.252;6.802;2023-06-10T14:08:09;32.10;99.90
2577;DHT22;1298;51.252;6.802;2023-06-10T14:10:57;32.00;99.90
2577;DHT22;1298;51.252;6.802;2023-06-10T14:13:43;31.70;99.90
2577;DHT22;1298;51.252;6.802;2023-06-10T14:16:29;31.90;99.90
2577;DHT22;1298;51.252;6.802;2023-06-10T14:19:15;31.90;99.90
2577;DHT22;1298;51.252;6.802;2023-06-10T14:22:01;31.80;99.90
2577;DHT22;1298;51.252;6.802;2023-06-10T14:24:46;31.70;99.90
2577;DHT22;1298;51.252;6.802;2023-06-10T14:27:34;31.30;99.90
2577;DHT22;1298;51.252;6.802;2023-06-10T14:30:19;31.20;99.90
2577;DHT22;1298;51.252;6.802;2023-06-10T14:33:04;31.20;99.90
2577;DHT22;1298;51.252;6.802;2023-06-10T14:35:51;31.10;99.90
2577;DHT22;1298;51.252;6.802;2023-06-10T14:38:36;31.00;99.90
2577;DHT22;1298;51.252;6.802;2023-06-10T14:41:21;31.00;99.90
2577;DHT22;1298;51.252;6.802;2023-06-10T14:44:14;30.90;99.90
2577;DHT22;1298;51.252;6.802;2023-06-10T14:47:00;30.70;99.90
2577;DHT22;1298;51.252;6.802;2023-06-10T14:49:46;31.10;99.90
2577;DHT22;1298;51.252;6.802;2023-06-10T14:52:32;31.50;99.90
2577;DHT22;1298;51.252;6.802;2023-06-10T14:55:17;31.70;99.90
2577;DHT22;1298;51.252;6.802;2023-06-10T14:58:03;31.90;99.90
2577;DHT22;1298;51.252;6.802;2023-06-10T15:00:56;32.10;99.90
2577;DHT22;1298;51.252;6.802;2023-06-10T15:03:44;32.00;99.90
2577;DHT22;1298;51.252;6.802;2023-06-10T15:06:35;32.20;99.90
2577;DHT22;1298;51.252;6.802;2023-06-10T15:09:22;32.60;99.90
2577;DHT22;1298;51.252;6.802;2023-06-10T15:12:08;33.10;99.90
2577;DHT22;1298;51.252;6.802;2023-06-10T15:14:56;33.70;99.90
2577;DHT22;1298;51.252;6.802;2023-06-10T15:17:47;34.00;99.90
2577;DHT22;1298;51.252;6.802;2023-06-10T15:20:35;35.00;99.90
2577;DHT22;1298;51.252;6.802;2023-06-10T15:23:25;34.80;99.90
2577;DHT22;1298;51.252;6.802;2023-06-10T15:26:10;35.50;99.90
2577;DHT22;1298;51.252;6.802;2023-06-10T15:28:58;36.40;99.90
2577;DHT22;1298;51.252;6.802;2023-06-10T15:31:48;36.60;99.90
2577;DHT22;1298;51.252;6.802;2023-06-10T15:34:36;36.70;99.90
2577;DHT22;1298;51.252;6.802;2023-06-10T15:37:25;36.80;99.90
2577;DHT22;1298;51.252;6.802;2023-06-10T15:40:14;36.90;99.90
2577;DHT22;1298;51.252;6.802;2023-06-10T15:43:02;36.90;99.90
2577;DHT22;1298;51.252;6.802;2023-06-10T15:45:47;37.10;99.90
2577;DHT22;1298;51.252;6.802;2023-06-10T15:48:32;37.20;99.90
2577;DHT22;1298;51.252;6.802;2023-06-10T15:51:19;37.50;99.90
2577;DHT22;1298;51.252;6.802;2023-06-10T15:54:05;37.30;99.90
2577;DHT22;1298;51.252;6.802;2023-06-10T15:56:50;37.40;99.90
2577;DHT22;1298;51.252;6.802;2023-06-10T15:59:35;36.60;99.90
2577;DHT22;1298;51.252;6.802;2023-06-10T16:02:22;35.70;99.90
2577;DHT22;1298;51.252;6.802;2023-06-10T16:05:15;34.70;99.90
2577;DHT22;1298;51.252;6.802;2023-06-10T16:08:03;34.00;99.90
2577;DHT22;1298;51.252;6.802;2023-06-10T16:10:48;33.50;99.90
2577;DHT22;1298;51.252;6.802;2023-06-10T16:13:34;33.80;99.90
2577;DHT22;1298;51.252;6.802;2023-06-10T16:16:19;34.40;99.90
2577;DHT22;1298;51.252;6.802;2023-06-10T16:19:04;34.20;99.90
2577;DHT22;1298;51.252;6.802;2023-06-10T16:21:50;34.70;99.90
2577;DHT22;1298;51.252;6.802;2023-06-10T16:24:37;35.60;99.90
2577;DHT22;1298;51.252;6.802;2023-06-10T16:27:22;35.70;99.90
2577;DHT22;1298;51.252;6.802;2023-06-10T16:30:09;35.80;99.90
2577;DHT22;1298;51.252;6.802;2023-06-10T16:32:57;35.70;99.90
2577;DHT22;1298;51.252;6.802;2023-06-10T16:35:42;35.90;99.90
2577;DHT22;1298;51.252;6.802;2023-06-10T16:38:28;35.90;99.90
2577;DHT22;1298;51.252;6.802;2023-06-10T16:41:16;35.80;99.90
2577;DHT22;1298;51.252;6.802;2023-06-10T16:44:02;35.70;99.90
2577;DHT22;1298;51.252;6.802;2023-06-10T16:46:47;36.20;99.90
2577;DHT22;1298;51.252;6.802;2023-06-10T16:49:33;36.30;99.90
2577;DHT22;1298;51.252;6.802;2023-06-10T16:52:20;36.30;99.90
2577;DHT22;1298;51.252;6.802;2023-06-10T16:55:05;36.20;99.90
2577;DHT22;1298;51.252;6.802;2023-06-10T16:57:52;36.20;99.90
2577;DHT22;1298;51.252;6.802;2023-06-10T17:00:40;36.10;99.90
2577;DHT22;1298;51.252;6.802;2023-06-10T17:03:30;36.00;99.90
2577;DHT22;1298;51.252;6.802;2023-06-10T17:06:18;35.50;99.90
2577;DHT22;1298;51.252;6.802;2023-06-10T17:09:05;35.60;99.90
2577;DHT22;1298;51.252;6.802;2023-06-10T17:11:51;35.70;99.90
2577;DHT22;1298;51.252;6.802;2023-06-10T17:14:37;35.90;99.90
2577;DHT22;1298;51.252;6.802;2023-06-10T17:17:23;36.00;99.90
2577;DHT22;1298;51.252;6.802;2023-06-10T17:20:17;36.00;99.90
2577;DHT22;1298;51.252;6.802;2023-06-10T17:23:09;36.20;99.90
2577;DHT22;1298;51.252;6.802;2023-06-10T17:26:08;36.10;99.90
2577;DHT22;1298;51.252;6.802;2023-06-10T17:28:53;36.10;99.90
2577;DHT22;1298;51.252;6.802;2023-06-10T17:31:40;35.80;99.90
2577;DHT22;1298;51.252;6.802;2023-06-10T17:34:25;35.60;99.90
2577;DHT22;1298;51.252;6.802;2023-06-10T17:37:14;35.70;99.90
2577;DHT22;1298;51.252;6.802;2023-06-10T17:39:59;35.20;99.90
2577;DHT22;1298;51.252;6.802;2023-06-10T17:42:45;35.30;99.90
2577;DHT22;1298;51.252;6.802;2023-06-10T17:45:30;35.00;99.90
2577;DHT22;1298;51.252;6.802;2023-06-10T17:48:22;34.50;99.90
2577;DHT22;1298;51.252;6.802;2023-06-10T17:51:11;34.30;99.90
2577;DHT22;1298;51.252;6.802;2023-06-10T17:53:57;34.10;99.90
2577;DHT22;1298;51.252;6.802;2023-06-10T17:56:43;33.70;99.90
2577;DHT22;1298;51.252;6.802;2023-06-10T17:59:29;33.60;99.90
2577;DHT22;1298;51.252;6.802;2023-06-10T18:02:19;33.70;99.90
2577;DHT22;1298;51.252;6.802;2023-06-10T18:05:06;33.50;99.90
2577;DHT22;1298;51.252;6.802;2023-06-10T18:07:51;33.50;99.90